Time;durP1;ratioP1;P1;durP2;ratioP2;P2;SDS_P1;SDS_P2;PMS_P1;PMS_P2;Temp;Humidity;BMP_temperature;BMP_pressure;BME280_temperature;BME280_humidity;BME280_pressure;Samples;Min_cycle;Max_cycle;Signal;HPM_P1;HPM_P2
2022/05/23 00:01:18;;;;;;;;;;;;;;;21.91;44.73;100895.25;4995873;28;4257;-60
2022/05/23 00:03:45;;;;;;;;;;;;;;;21.90;45.00;100890.91;4998978;28;4226;-59
2022/05/23 00:06:12;;;;;;;;;;;;;;;21.90;44.91;100894.50;5001219;28;5585;-60
2022/05/23 00:08:38;;;;;;;;;;;;;;;21.89;45.02;100895.16;5014273;28;5315;-60
2022/05/23 00:11:04;;;;;;;;;;;;;;;21.89;44.90;100900.94;5010699;28;4213;-59
2022/05/23 00:13:31;;;;;;;;;;;;;;;21.89;44.71;100900.94;5006928;28;4066;-60
2022/05/23 00:15:58;;;;;;;;;;;;;;;21.89;44.75;100895.91;5012722;28;4135;-59
2022/05/23 00:18:24;;;;;;;;;;;;;;;21.88;44.98;100893.69;5011275;28;5205;-60
2022/05/23 00:20:51;;;;;;;;;;;;;;;21.88;44.77;100885.78;5014221;28;4210;-59
2022/05/23 00:23:17;;;;;;;;;;;;;;;21.88;45.01;100876.41;5003374;28;4364;-60
2022/05/23 00:25:43;;;;;;;;;;;;;;;21.88;44.91;100882.91;5010318;28;4310;-60
2022/05/23 00:28:10;;;;;;;;;;;;;;;21.86;44.82;100873.44;5012127;28;4236;-59
2022/05/23 00:30:36;;;;;;;;;;;;;;;21.88;44.99;100876.41;5011651;28;5345;-59
2022/05/23 00:35:51;;;;;;;;;;;;;;;21.87;45.17;100874.91;5006999;28;4077;-59
2022/05/23 00:38:17;;;;;;;;;;;;;;;21.86;45.17;100870.53;5008543;28;4233;-60
2022/05/23 00:43:13;;;;;;;;;;;;;;;21.85;45.14;100860.41;5011025;28;4278;-60
2022/05/23 00:43:45;;;;;;;;;;;;;;;21.85;45.06;100874.81;5007585;28;4179;-60
2022/05/23 00:46:11;;;;;;;;;;;;;;;21.87;45.23;100863.38;5003998;28;4245;-59
2022/05/23 00:48:37;;;;;;;;;;;;;;;21.85;45.17;100866.16;5008161;28;5245;-60
2022/05/23 00:51:07;;;;;;;;;;;;;;;21.84;45.33;100861.81;5012456;28;4257;-60
2022/05/23 00:53:38;;;;;;;;;;;;;;;21.84;45.30;100867.56;5025414;28;4105;-60
2022/05/23 00:56:05;;;;;;;;;;;;;;;21.85;45.30;100860.41;5001458;28;4300;-59
2022/05/23 00:58:32;;;;;;;;;;;;;;;21.84;45.18;100853.16;5006866;28;4201;-59
2022/05/23 01:01:01;;;;;;;;;;;;;;;21.84;45.00;100835.88;5004396;28;5337;-59
2022/05/23 01:03:28;;;;;;;;;;;;;;;21.83;45.26;100828.59;5015133;28;5301;-60
2022/05/23 01:05:54;;;;;;;;;;;;;;;21.83;45.17;100822.84;5010327;28;4080;-59
2022/05/23 01:08:21;;;;;;;;;;;;;;;21.83;45.38;100831.50;5010751;28;4244;-60
2022/05/23 01:10:47;;;;;;;;;;;;;;;21.83;45.27;100817.06;5012089;28;4173;-60
2022/05/23 01:13:14;;;;;;;;;;;;;;;21.83;45.38;100811.31;5005231;28;4243;-60
2022/05/23 01:15:45;;;;;;;;;;;;;;;21.82;45.24;100815.59;5011227;28;4298;-60
2022/05/23 01:18:11;;;;;;;;;;;;;;;21.82;45.47;100818.50;5025481;28;4259;-60
2022/05/23 01:20:38;;;;;;;;;;;;;;;21.82;45.51;100815.59;5010992;28;4208;-59
2022/05/23 01:23:23;;;;;;;;;;;;;;;21.82;45.49;100821.38;4992023;28;4658;-60
2022/05/23 01:26:05;;;;;;;;;;;;;;;21.80;45.32;100812.66;5019240;28;4211;-60
2022/05/23 01:28:40;;;;;;;;;;;;;;;21.81;45.33;100820.63;5012459;28;4205;-60
2022/05/23 01:31:09;;;;;;;;;;;;;;;21.82;45.42;100815.59;5002774;28;4261;-60
2022/05/23 01:33:36;;;;;;;;;;;;;;;21.81;45.59;100814.88;5014941;28;5592;-60
2022/05/23 01:36:04;;;;;;;;;;;;;;;21.81;45.61;100814.13;5013490;28;5538;-60
2022/05/23 01:38:31;;;;;;;;;;;;;;;21.81;45.30;100811.25;5013911;28;4227;-59
2022/05/23 01:41:08;;;;;;;;;;;;;;;21.81;45.65;100814.13;5017515;28;4178;-60
2022/05/23 01:43:38;;;;;;;;;;;;;;;21.80;45.56;100809.75;5017979;28;5331;-60
2022/05/23 01:46:22;;;;;;;;;;;;;;;21.80;45.51;100812.66;5015079;28;4226;-59
2022/05/23 01:49:15;;;;;;;;;;;;;;;21.81;45.61;100808.38;5014229;28;4195;-59
2022/05/23 01:51:42;;;;;;;;;;;;;;;21.80;45.59;100809.75;5018503;28;4064;-60
2022/05/23 01:54:12;;;;;;;;;;;;;;;21.80;45.48;100809.75;5018032;28;4204;-60
2022/05/23 01:56:39;;;;;;;;;;;;;;;21.80;45.62;100807.63;5031334;28;4355;-60
2022/05/23 02:01:53;;;;;;;;;;;;;;;21.79;45.47;100814.06;5017679;28;4202;-59
2022/05/23 02:04:33;;;;;;;;;;;;;;;21.79;45.61;100802.53;5009348;28;4019;-60
2022/05/23 02:06:59;;;;;;;;;;;;;;;21.78;45.44;100798.16;5025334;28;4200;-60
2022/05/23 02:09:31;;;;;;;;;;;;;;;21.78;45.74;100804.66;5013813;28;4097;-59
2022/05/23 02:12:17;;;;;;;;;;;;;;;21.78;45.58;100798.16;5016545;28;4164;-59
2022/05/23 02:14:45;;;;;;;;;;;;;;;21.78;45.71;100798.16;5016164;28;4185;-59
2022/05/23 02:17:30;;;;;;;;;;;;;;;21.78;45.73;100789.50;5013281;28;5529;-59
2022/05/23 02:19:56;;;;;;;;;;;;;;;21.78;45.72;100795.25;5011421;28;4393;-60
2022/05/23 02:22:23;;;;;;;;;;;;;;;21.77;45.62;100796.69;5016832;28;4259;-59
2022/05/23 02:25:02;;;;;;;;;;;;;;;21.75;45.73;100789.41;5011375;28;4145;-60
2022/05/23 02:27:29;;;;;;;;;;;;;;;21.76;45.83;100790.16;5014485;28;4187;-60
2022/05/23 02:29:56;;;;;;;;;;;;;;;21.77;45.65;100790.91;5018454;28;5188;-60
2022/05/23 02:32:23;;;;;;;;;;;;;;;21.77;45.63;100776.50;5006081;28;4399;-59
2022/05/23 02:34:50;;;;;;;;;;;;;;;21.75;45.82;100777.16;5004077;28;4505;-59
2022/05/23 02:37:16;;;;;;;;;;;;;;;21.75;45.76;100769.25;5008542;28;4306;-60
2022/05/23 02:39:47;;;;;;;;;;;;;;;21.75;45.90;100775.00;5026993;28;4193;-60
2022/05/23 02:42:15;;;;;;;;;;;;;;;21.75;45.92;100782.91;5024544;28;5690;-60
2022/05/23 02:44:42;;;;;;;;;;;;;;;21.75;45.97;100783.66;5008711;28;5360;-60
2022/05/23 02:47:14;;;;;;;;;;;;;;;21.74;45.82;100782.19;5022076;28;4183;-59
2022/05/23 02:49:41;;;;;;;;;;;;;;;21.74;45.81;100787.22;5028024;28;6284;-60
2022/05/23 02:52:13;;;;;;;;;;;;;;;21.74;45.66;100793.72;5025538;28;4879;-60
2022/05/23 02:55:02;;;;;;;;;;;;;;;21.74;45.64;100793.72;5010743;28;5321;-60
2022/05/23 02:57:29;;;;;;;;;;;;;;;21.73;46.12;100794.38;5031132;28;4229;-59
2022/05/23 02:59:55;;;;;;;;;;;;;;;21.72;45.73;100784.97;5014119;28;5370;-59
2022/05/23 03:05:07;;;;;;;;;;;;;;;21.72;46.10;100793.63;5020923;28;4294;-59
2022/05/23 03:07:34;;;;;;;;;;;;;;;21.72;45.96;100790.75;5011106;28;4265;-59
2022/05/23 03:10:03;;;;;;;;;;;;;;;21.72;45.98;100790.00;5010693;28;4276;-59
2022/05/23 03:12:29;;;;;;;;;;;;;;;21.71;46.05;100789.25;5019583;28;4210;-59
2022/05/23 03:14:56;;;;;;;;;;;;;;;21.71;45.98;100789.25;5022430;28;4368;-59
2022/05/23 03:17:23;;;;;;;;;;;;;;;21.71;45.96;100777.00;5002673;28;4215;-59
2022/05/23 03:19:50;;;;;;;;;;;;;;;21.70;45.83;100787.78;5006088;28;4241;-59
2022/05/23 03:27:47;;;;;;;;;;;;;;;21.70;45.88;100782.03;5018279;28;6172;-60
2022/05/23 03:30:19;;;;;;;;;;;;;;;21.69;46.10;100774.78;5014749;28;4271;-59
2022/05/23 03:32:52;;;;;;;;;;;;;;;21.69;46.07;100780.53;5024982;28;4299;-60
2022/05/23 03:35:19;;;;;;;;;;;;;;;21.69;46.09;100774.78;5010917;28;4202;-60
2022/05/23 03:37:45;;;;;;;;;;;;;;;21.69;46.22;100774.78;5009911;28;4325;-60
2022/05/23 03:40:12;;;;;;;;;;;;;;;21.67;46.17;100774.69;5016980;28;4344;-60
2022/05/23 03:42:45;;;;;;;;;;;;;;;21.69;46.05;100771.91;5016321;28;5314;-59
2022/05/23 03:45:12;;;;;;;;;;;;;;;21.68;46.08;100779.06;5013908;28;4345;-60
2022/05/23 03:47:44;;;;;;;;;;;;;;;21.68;46.22;100781.94;5010111;28;4201;-60
2022/05/23 03:50:19;;;;;;;;;;;;;;;21.67;46.26;100774.69;5009042;28;5424;-60
2022/05/23 03:52:46;;;;;;;;;;;;;;;21.67;46.09;100780.47;5008035;28;4230;-60
2022/05/23 03:55:21;;;;;;;;;;;;;;;21.66;46.10;100776.09;5012523;28;4285;-59
2022/05/23 03:57:56;;;;;;;;;;;;;;;21.66;46.18;100776.09;5028074;28;4280;-60
2022/05/23 04:00:22;;;;;;;;;;;;;;;21.67;46.23;100786.22;5007603;28;4184;-60
2022/05/23 04:02:52;;;;;;;;;;;;;;;21.67;46.08;100788.34;5015012;28;5328;-59
2022/05/23 04:05:19;;;;;;;;;;;;;;;21.67;46.15;100782.59;5012581;28;4894;-60
2022/05/23 04:07:54;;;;;;;;;;;;;;;21.67;46.34;100782.59;5005147;28;4202;-60
2022/05/23 04:10:33;;;;;;;;;;;;;;;21.66;46.34;100790.50;5008944;28;4246;-60
2022/05/23 04:13:02;;;;;;;;;;;;;;;21.66;46.28;100781.84;5008846;28;4311;-60
2022/05/23 04:15:28;;;;;;;;;;;;;;;21.67;46.34;100780.47;5009443;28;4197;-60
2022/05/23 04:17:55;;;;;;;;;;;;;;;21.65;46.24;100786.16;5015228;28;4109;-60
2022/05/23 04:20:22;;;;;;;;;;;;;;;21.62;46.06;100775.19;5013234;28;4378;-60
2022/05/23 04:23:02;;;;;;;;;;;;;;;21.56;46.01;100787.22;5023562;28;4214;-62
2022/05/23 04:25:29;;;;;;;;;;;;;;;21.52;45.84;100798.56;5002571;28;5233;-62
2022/05/23 04:27:55;;;;;;;;;;;;;;;21.46;45.63;100786.78;5007151;28;4181;-61
2022/05/23 04:30:21;;;;;;;;;;;;;;;21.44;45.46;100783.84;5020221;28;4219;-61
2022/05/23 04:35:36;;;;;;;;;;;;;;;21.39;45.42;100776.41;5019779;28;4117;-61
2022/05/23 04:38:02;;;;;;;;;;;;;;;21.38;45.37;100774.94;5008824;28;4387;-61
2022/05/23 04:40:35;;;;;;;;;;;;;;;21.36;45.18;100777.72;5027822;28;4020;-61
2022/05/23 04:43:02;;;;;;;;;;;;;;;21.33;45.30;100768.25;5013617;28;4493;-61
2022/05/23 04:45:29;;;;;;;;;;;;;;;21.32;45.31;100770.38;5010782;28;4210;-61
2022/05/23 04:50:51;;;;;;;;;;;;;;;21.28;45.34;100770.22;5017327;28;6055;-60
2022/05/23 04:53:19;;;;;;;;;;;;;;;21.33;45.32;100757.47;5005780;28;5601;-62
2022/05/23 04:56:00;;;;;;;;;;;;;;;21.37;45.39;100761.91;5021693;28;4167;-61
2022/05/23 04:58:27;;;;;;;;;;;;;;;21.37;45.28;100770.56;5011006;28;5634;-61
2022/05/23 05:00:54;;;;;;;;;;;;;;;21.38;45.44;100757.66;5014719;28;5269;-61
2022/05/23 05:03:20;;;;;;;;;;;;;;;21.39;45.23;100753.34;4998370;28;4240;-61
2022/05/23 05:05:49;;;;;;;;;;;;;;;21.40;45.36;100760.63;5016262;28;4240;-62
2022/05/23 05:08:16;;;;;;;;;;;;;;;21.37;45.50;100756.88;5021913;28;4416;-65
2022/05/23 05:10:50;;;;;;;;;;;;;;;21.29;46.12;100745.78;4989371;28;4178;-61
2022/05/23 05:13:21;;;;;;;;;;;;;;;21.34;46.01;100750.31;5003770;28;4034;-61
2022/05/23 05:15:48;;;;;;;;;;;;;;;21.40;46.00;100749.09;5025260;28;4942;-62
2022/05/23 05:18:24;;;;;;;;;;;;;;;21.44;45.66;100743.50;5021212;28;5364;-61
2022/05/23 05:21:07;;;;;;;;;;;;;;;21.45;45.83;100739.22;5021065;28;4249;-62
2022/05/23 05:23:56;;;;;;;;;;;;;;;21.47;45.70;100742.19;5036606;28;4199;-62
2022/05/23 05:26:26;;;;;;;;;;;;;;;21.49;45.58;100739.41;5014285;28;4162;-62
2022/05/23 05:28:53;;;;;;;;;;;;;;;21.50;45.66;100726.47;5020505;28;4227;-62
2022/05/23 05:31:22;;;;;;;;;;;;;;;21.51;45.54;100730.84;5021992;28;4237;-61
2022/05/23 05:34:08;;;;;;;;;;;;;;;21.52;45.31;100726.56;5022845;28;4164;-62
2022/05/23 05:36:36;;;;;;;;;;;;;;;21.53;45.57;100717.25;5020043;28;4176;-62
2022/05/23 05:39:03;;;;;;;;;;;;;;;21.53;46.03;100722.25;5019748;28;4124;-62
2022/05/23 05:41:38;;;;;;;;;;;;;;;21.56;45.78;100720.94;5018788;28;4229;-61
2022/05/23 05:44:05;;;;;;;;;;;;;;;21.57;46.13;100721.69;5025721;28;4046;-62
2022/05/23 05:46:38;;;;;;;;;;;;;;;21.55;45.98;100730.97;5006772;28;4256;-59
2022/05/23 05:49:23;;;;;;;;;;;;;;;21.44;46.24;100723.34;5000763;28;5521;-66
2022/05/23 05:52:13;;;;;;;;;;;;;;;21.41;46.55;100722.50;5017234;28;4121;-67
2022/05/23 05:54:49;;;;;;;;;;;;;;;21.43;46.43;100719.72;5033991;28;5172;-69
2022/05/23 05:57:16;;;;;;;;;;;;;;;21.49;45.77;100710.59;5019555;28;5476;-69
2022/05/23 05:59:42;;;;;;;;;;;;;;;21.40;45.01;100708.75;5031542;28;4173;-70
2022/05/23 06:02:10;;;;;;;;;;;;;;;21.28;44.67;100698.25;5021873;28;5300;-67
2022/05/23 06:04:37;;;;;;;;;;;;;;;21.46;44.83;100700.38;5010654;28;4174;-69
2022/05/23 06:13:29;;;;;;;;;;;;;;;21.62;44.23;100680.09;5042252;28;4229;-71
2022/05/23 06:16:04;;;;;;;;;;;;;;;21.49;44.14;100678.91;5039214;28;4228;-71
2022/05/23 06:18:37;;;;;;;;;;;;;;;21.50;44.12;100665.97;5019578;28;4201;-65
2022/05/23 06:21:09;;;;;;;;;;;;;;;21.62;44.00;100666.41;5019169;28;4144;-66
2022/05/23 06:23:38;;;;;;;;;;;;;;;21.70;43.81;100666.75;5018290;28;4258;-65
2022/05/23 06:26:22;;;;;;;;;;;;;;;21.77;43.57;100655.44;5024408;28;4219;-67
2022/05/23 06:29:07;;;;;;;;;;;;;;;22.02;43.76;100659.97;5014129;28;5353;-69
2022/05/23 06:31:34;;;;;;;;;;;;;;;22.11;43.30;100656.72;5030707;28;4216;-69
2022/05/23 06:34:01;;;;;;;;;;;;;;;22.21;43.22;100658.47;5020212;28;3974;-67
2022/05/23 06:36:28;;;;;;;;;;;;;;;21.99;42.85;100658.41;5022485;28;4206;-62
2022/05/23 06:38:54;;;;;;;;;;;;;;;21.83;42.87;100649.91;5017981;28;4251;-64
2022/05/23 06:41:43;;;;;;;;;;;;;;;21.73;43.25;100647.38;5019782;28;4322;-61
2022/05/23 06:44:28;;;;;;;;;;;;;;;21.65;43.67;100647.81;5014497;28;4638;-66
2022/05/23 06:47:27;;;;;;;;;;;;;;;21.62;43.95;100649.13;5010559;28;4324;-66
2022/05/23 06:50:20;;;;;;;;;;;;;;;21.61;43.67;100635.41;5016582;28;4162;-64
2022/05/23 06:53:09;;;;;;;;;;;;;;;21.61;43.82;100636.16;5023497;28;4503;-61
2022/05/23 06:55:51;;;;;;;;;;;;;;;21.58;44.10;100636.72;5021305;28;4486;-65
2022/05/23 06:58:21;;;;;;;;;;;;;;;21.59;43.83;100633.19;5025278;28;5372;-66
2022/05/23 07:00:48;;;;;;;;;;;;;;;21.70;44.01;100623.50;5037573;28;4317;-66
2022/05/23 07:03:19;;;;;;;;;;;;;;;21.77;43.13;100623.75;5025684;28;4264;-65
2022/05/23 07:14:18;;;;;;;;;;;;;;;21.91;42.91;100622.13;5027634;28;4254;-75
2022/05/23 07:16:46;;;;;;;;;;;;;;;21.94;42.71;100608.50;5023070;28;4169;-73
2022/05/23 07:19:12;;;;;;;;;;;;;;;21.96;42.44;100605.69;5030663;28;5195;-73
2022/05/23 07:22:00;;;;;;;;;;;;;;;21.96;42.10;100611.47;5019064;28;4328;-70
2022/05/23 07:24:33;;;;;;;;;;;;;;;21.96;42.35;100612.19;5022267;28;5664;-71
2022/05/23 07:27:04;;;;;;;;;;;;;;;21.99;42.62;100604.38;5016174;28;4253;-69
2022/05/23 07:29:31;;;;;;;;;;;;;;;21.98;42.40;100600.00;5013583;28;5338;-69
2022/05/23 07:32:02;;;;;;;;;;;;;;;21.98;42.08;100608.66;5031962;28;4090;-69
2022/05/23 07:34:30;;;;;;;;;;;;;;;22.00;42.35;100608.72;5013106;28;5461;-69
2022/05/23 07:36:58;;;;;;;;;;;;;;;21.97;42.08;100601.44;5017511;28;5471;-68
2022/05/23 07:39:26;;;;;;;;;;;;;;;21.94;42.21;100588.31;5027219;28;4236;-67
2022/05/23 07:42:03;;;;;;;;;;;;;;;21.96;42.11;100597.06;5015405;28;5317;-67
2022/05/23 07:44:30;;;;;;;;;;;;;;;21.99;41.82;100589.97;5009361;28;5228;-69
2022/05/23 07:47:06;;;;;;;;;;;;;;;22.02;41.78;100590.78;5020323;28;4272;-68
2022/05/23 07:49:34;;;;;;;;;;;;;;;22.06;41.76;100583.00;5012370;28;4174;-67
2022/05/23 07:52:08;;;;;;;;;;;;;;;22.08;41.91;100597.50;5008472;28;4148;-68
2022/05/23 08:00:31;;;;;;;;;;;;;;;22.00;41.06;100594.31;5021387;28;5560;-70
2022/05/23 08:03:06;;;;;;;;;;;;;;;21.91;41.31;100587.53;5015081;28;4077;-66
2022/05/23 08:05:32;;;;;;;;;;;;;;;21.87;42.09;100584.47;5015255;28;4237;-61
2022/05/23 08:07:59;;;;;;;;;;;;;;;21.98;41.37;100576.94;5007931;28;4277;-60
2022/05/23 08:10:25;;;;;;;;;;;;;;;22.06;41.35;100571.47;5023420;28;4178;-60
2022/05/23 08:12:53;;;;;;;;;;;;;;;22.15;41.00;100570.34;5012215;28;4968;-61
2022/05/23 08:15:20;;;;;;;;;;;;;;;22.24;41.25;100564.88;5017462;28;4161;-61
2022/05/23 08:17:52;;;;;;;;;;;;;;;22.30;40.84;100567.97;5028534;28;4206;-60
2022/05/23 08:20:32;;;;;;;;;;;;;;;22.44;41.28;100556.16;5017367;28;5319;-60
2022/05/23 08:22:59;;;;;;;;;;;;;;;22.55;40.39;100570.25;5011724;28;4290;-59
2022/05/23 08:25:37;;;;;;;;;;;;;;;22.46;40.43;100562.72;5020286;28;4170;-60
2022/05/23 08:28:03;;;;;;;;;;;;;;;22.46;40.69;100565.63;5031304;28;4216;-60
2022/05/23 08:30:31;;;;;;;;;;;;;;;22.48;40.48;100557.03;5029662;28;4263;-61
2022/05/23 08:33:06;;;;;;;;;;;;;;;22.50;40.08;100557.09;5012626;28;5444;-61
2022/05/23 08:35:33;;;;;;;;;;;;;;;22.21;39.69;100560.41;5012286;28;4237;-70
2022/05/23 08:38:00;;;;;;;;;;;;;;;22.06;40.06;100562.81;5018595;28;4228;-71
2022/05/23 08:40:49;;;;;;;;;;;;;;;21.99;39.98;100555.38;5013411;28;5347;-69
2022/05/23 08:43:18;;;;;;;;;;;;;;;21.94;40.72;100563.13;5010723;28;4070;-69
2022/05/23 08:45:45;;;;;;;;;;;;;;;21.96;40.96;100554.53;5013727;28;4073;-72
2022/05/23 08:48:13;;;;;;;;;;;;;;;21.91;40.60;100546.44;5020760;28;6464;-71
2022/05/23 08:50:46;;;;;;;;;;;;;;;21.91;41.32;100543.53;5018029;28;4200;-72
2022/05/23 08:53:19;;;;;;;;;;;;;;;22.04;41.34;100539.69;5022550;28;4118;-75
2022/05/23 08:56:18;;;;;;;;;;;;;;;22.13;41.29;100532.06;5013534;28;4050;-74
2022/05/23 08:58:52;;;;;;;;;;;;;;;22.18;41.02;100528.63;5016161;28;5231;-75
2022/05/23 09:01:19;;;;;;;;;;;;;;;22.21;40.66;100531.56;5013133;28;4127;-75
2022/05/23 09:03:48;;;;;;;;;;;;;;;22.22;40.40;100524.41;5015498;28;4200;-70
2022/05/23 09:06:15;;;;;;;;;;;;;;;22.21;40.18;100522.94;4995819;28;4361;-70
2022/05/23 09:08:49;;;;;;;;;;;;;;;22.06;40.43;100515.94;5027037;28;4240;-70
2022/05/23 09:11:21;;;;;;;;;;;;;;;22.11;41.37;100517.56;5017535;28;4241;-74
2022/05/23 09:13:47;;;;;;;;;;;;;;;22.15;40.29;100506.16;5002611;28;4186;-66
2022/05/23 09:16:14;;;;;;;;;;;;;;;22.12;40.96;100505.34;5013396;28;4202;-72
2022/05/23 09:18:42;;;;;;;;;;;;;;;22.21;40.67;100511.41;5010613;28;4161;-69
2022/05/23 09:21:09;;;;;;;;;;;;;;;22.27;40.63;100512.38;5014098;28;4745;-70
2022/05/23 09:23:40;;;;;;;;;;;;;;;22.31;40.04;100500.19;5005993;28;5491;-69
2022/05/23 09:26:11;;;;;;;;;;;;;;;22.30;40.37;100504.50;5012887;28;4134;-69
2022/05/23 09:28:38;;;;;;;;;;;;;;;22.35;40.32;100506.84;5028258;28;4261;-70
2022/05/23 09:31:17;;;;;;;;;;;;;;;22.37;40.54;100498.25;5012795;28;4174;-70
2022/05/23 09:33:45;;;;;;;;;;;;;;;22.37;40.21;100491.75;5008143;28;4034;-71
2022/05/23 09:36:18;;;;;;;;;;;;;;;22.33;39.89;100491.63;5014425;28;4102;-72
2022/05/23 09:39:04;;;;;;;;;;;;;;;22.34;40.03;100498.88;5011221;28;5224;-70
2022/05/23 09:50:11;;;;;;;;;;;;;;;22.24;39.50;100472.56;5005159;28;4404;-67
2022/05/23 09:52:59;;;;;;;;;;;;;;;22.14;39.21;100462.16;5001717;28;4207;-63
2022/05/23 09:55:28;;;;;;;;;;;;;;;22.10;39.88;100459.13;5010065;28;4173;-67
2022/05/23 09:57:59;;;;;;;;;;;;;;;22.24;40.09;100458.16;5009931;28;4457;-65
2022/05/23 10:00:27;;;;;;;;;;;;;;;22.29;39.64;100448.25;5006936;28;4221;-54
2022/05/23 10:03:02;;;;;;;;;;;;;;;22.30;39.70;100447.56;5008116;28;5490;-62
2022/05/23 10:05:35;;;;;;;;;;;;;;;22.42;39.60;100458.72;5015292;28;4086;-65
2022/05/23 10:08:31;;;;;;;;;;;;;;;22.50;39.29;100444.56;5013730;28;4223;-70
2022/05/23 10:10:58;;;;;;;;;;;;;;;22.47;39.09;100443.06;5016358;28;5252;-71
2022/05/23 10:13:41;;;;;;;;;;;;;;;22.43;38.96;100440.03;5011182;28;4232;-71
2022/05/23 10:16:18;;;;;;;;;;;;;;;22.43;38.95;100425.59;5018734;28;4048;-70
2022/05/23 10:18:44;;;;;;;;;;;;;;;22.43;38.89;100430.66;5018004;28;4032;-66
2022/05/23 10:21:29;;;;;;;;;;;;;;;22.44;39.16;100421.31;5018020;28;4267;-69
2022/05/23 10:23:59;;;;;;;;;;;;;;;22.46;39.69;100435.78;5009146;28;4168;-64
2022/05/23 10:26:25;;;;;;;;;;;;;;;22.52;39.90;100424.44;5013284;28;5446;-63
2022/05/23 10:28:53;;;;;;;;;;;;;;;22.60;40.08;100421.06;5017890;28;4242;-63
2022/05/23 10:31:23;;;;;;;;;;;;;;;22.68;40.13;100409.03;5017805;28;4318;-64
2022/05/23 10:33:51;;;;;;;;;;;;;;;22.62;39.66;100405.97;5009728;28;4065;-63
2022/05/23 10:36:19;;;;;;;;;;;;;;;22.58;40.02;100401.53;5019121;28;4391;-62
2022/05/23 10:44:36;;;;;;;;;;;;;;;22.57;40.39;100394.28;5015414;28;4232;-68
2022/05/23 10:47:09;;;;;;;;;;;;;;;22.59;40.66;100379.94;5017434;28;4260;-69
2022/05/23 10:49:46;;;;;;;;;;;;;;;22.62;40.64;100382.88;5020255;28;6182;-67
2022/05/23 10:52:18;;;;;;;;;;;;;;;22.66;40.73;100383.00;5029274;28;5346;-66
2022/05/23 10:54:47;;;;;;;;;;;;;;;22.69;40.83;100375.88;5022670;28;4223;-69
2022/05/23 10:57:29;;;;;;;;;;;;;;;22.65;41.12;100364.19;5014461;28;4089;-67
2022/05/23 11:00:01;;;;;;;;;;;;;;;22.65;41.10;100367.09;5017691;28;4129;-66
2022/05/23 11:02:31;;;;;;;;;;;;;;;22.73;41.57;100364.44;5019223;28;4096;-67
2022/05/23 11:05:16;;;;;;;;;;;;;;;22.72;41.32;100369.50;5011125;28;4370;-66
2022/05/23 11:07:45;;;;;;;;;;;;;;;22.70;41.41;100354.25;5014444;28;4255;-66
2022/05/23 11:10:29;;;;;;;;;;;;;;;22.72;41.54;100351.41;5017421;28;4093;-67
2022/05/23 11:13:22;;;;;;;;;;;;;;;22.73;41.54;100344.25;5012488;28;4194;-67
2022/05/23 11:16:02;;;;;;;;;;;;;;;22.77;41.61;100335.69;5012474;28;4491;-67
2022/05/23 11:18:33;;;;;;;;;;;;;;;22.79;41.83;100344.41;5015546;28;4400;-72
2022/05/23 11:21:01;;;;;;;;;;;;;;;22.84;41.66;100342.34;5015610;28;4474;-67
2022/05/23 11:23:28;;;;;;;;;;;;;;;22.84;41.87;100327.94;5009162;28;4562;-73
2022/05/23 11:25:59;;;;;;;;;;;;;;;22.86;41.85;100343.19;5015472;28;4706;-73
2022/05/23 11:34:13;;;;;;;;;;;;;;;22.86;41.92;100331.63;5012891;28;5627;-77
2022/05/23 11:36:57;;;;;;;;;;;;;;;22.88;41.74;100328.78;5014802;28;4940;-75
2022/05/23 11:39:42;;;;;;;;;;;;;;;22.89;42.25;100321.59;5018293;28;4103;-72
2022/05/23 11:42:12;;;;;;;;;;;;;;;22.91;42.04;100310.09;5015072;28;4308;-64
2022/05/23 11:44:42;;;;;;;;;;;;;;;22.92;42.41;100300.03;5008373;28;4184;-71
2022/05/23 11:47:21;;;;;;;;;;;;;;;22.96;42.22;100302.28;5017829;28;4236;-74
2022/05/23 11:49:48;;;;;;;;;;;;;;;22.97;42.14;100295.81;5018338;28;4223;-71
2022/05/23 11:52:16;;;;;;;;;;;;;;;22.98;42.19;100297.31;5018898;28;4224;-71
2022/05/23 11:54:42;;;;;;;;;;;;;;;22.98;41.81;100291.53;5015151;28;4205;-70
2022/05/23 11:57:29;;;;;;;;;;;;;;;23.00;42.07;100294.50;5018719;28;4058;-70
2022/05/23 11:59:56;;;;;;;;;;;;;;;23.01;41.83;100283.69;5017392;28;4325;-71
2022/05/23 12:02:23;;;;;;;;;;;;;;;22.97;42.37;100277.78;5017100;28;4193;-68
2022/05/23 12:04:51;;;;;;;;;;;;;;;22.95;42.63;100274.81;5008728;28;4238;-68
2022/05/23 12:07:44;;;;;;;;;;;;;;;22.99;42.11;100275.69;5017158;28;5229;-67
2022/05/23 12:10:22;;;;;;;;;;;;;;;23.00;42.20;100270.66;5017442;28;5215;-68
2022/05/23 12:12:53;;;;;;;;;;;;;;;23.00;42.10;100259.84;5018049;28;4256;-69
2022/05/23 12:15:38;;;;;;;;;;;;;;;23.04;42.35;100261.38;5011234;28;4230;-68
2022/05/23 12:18:05;;;;;;;;;;;;;;;23.04;42.41;100261.38;5016716;28;4168;-68
2022/05/23 12:20:31;;;;;;;;;;;;;;;23.03;42.64;100251.25;5014723;28;5323;-65
2022/05/23 12:23:08;;;;;;;;;;;;;;;23.04;42.44;100250.53;5011584;28;5360;-66
2022/05/23 12:25:35;;;;;;;;;;;;;;;23.07;42.54;100251.34;5013173;28;5281;-67
2022/05/23 12:28:07;;;;;;;;;;;;;;;23.07;42.64;100243.44;5015706;28;4230;-68
2022/05/23 12:30:34;;;;;;;;;;;;;;;23.08;42.75;100242.00;5016271;28;4195;-68
2022/05/23 12:33:00;;;;;;;;;;;;;;;23.12;42.48;100236.31;5013780;28;4091;-67
2022/05/23 12:35:29;;;;;;;;;;;;;;;23.12;42.58;100241.38;5008489;28;5283;-66
2022/05/23 12:37:56;;;;;;;;;;;;;;;23.10;42.45;100226.88;5015591;28;4290;-68
2022/05/23 12:40:27;;;;;;;;;;;;;;;23.10;42.77;100226.88;5014638;28;4172;-67
2022/05/23 12:43:00;;;;;;;;;;;;;;;23.09;42.79;100225.41;5014588;28;4213;-67
2022/05/23 12:45:35;;;;;;;;;;;;;;;23.09;42.71;100220.38;5013354;28;5566;-63
2022/05/23 12:48:21;;;;;;;;;;;;;;;23.12;42.74;100219.00;5011666;28;4189;-63
2022/05/23 12:51:06;;;;;;;;;;;;;;;23.16;42.50;100210.44;5014185;28;4160;-64
2022/05/23 12:53:51;;;;;;;;;;;;;;;23.17;42.68;100206.13;5006227;28;4121;-64
2022/05/23 12:56:17;;;;;;;;;;;;;;;23.07;42.33;100194.34;5013918;28;4046;-64
2022/05/23 12:58:52;;;;;;;;;;;;;;;23.12;42.88;100203.81;5016114;28;4191;-64
2022/05/23 13:01:21;;;;;;;;;;;;;;;23.19;42.89;100208.34;5013087;28;5341;-67
2022/05/23 13:03:57;;;;;;;;;;;;;;;23.22;42.67;100192.50;5005977;28;4452;-64
2022/05/23 13:06:25;;;;;;;;;;;;;;;23.26;42.83;100189.72;5007692;28;4356;-66
2022/05/23 13:08:54;;;;;;;;;;;;;;;23.30;42.18;100175.38;5012962;28;4211;-65
2022/05/23 13:11:38;;;;;;;;;;;;;;;23.26;42.44;100174.56;5014427;28;4313;-66
2022/05/23 13:14:04;;;;;;;;;;;;;;;23.26;42.50;100180.34;5009014;28;4078;-66
2022/05/23 13:16:32;;;;;;;;;;;;;;;23.27;42.73;100194.06;5008853;28;4516;-65
2022/05/23 13:22:05;;;;;;;;;;;;;;;23.10;42.75;100186.44;5004746;28;4234;-60
2022/05/23 13:24:52;;;;;;;;;;;;;;;23.03;43.06;100182.69;4997047;28;4292;-74
2022/05/23 13:27:29;;;;;;;;;;;;;;;23.06;43.53;100177.69;5017710;28;4250;-72
2022/05/23 13:29:59;;;;;;;;;;;;;;;23.05;43.29;100167.56;5005205;28;4182;-68
2022/05/23 13:32:26;;;;;;;;;;;;;;;23.06;42.79;100177.69;5010407;28;4337;-70
2022/05/23 13:34:53;;;;;;;;;;;;;;;23.05;42.85;100179.84;4995716;28;4196;-69
2022/05/23 13:37:23;;;;;;;;;;;;;;;23.04;43.07;100177.63;5006191;28;4137;-69
2022/05/23 13:39:50;;;;;;;;;;;;;;;23.04;43.20;100171.84;5011581;28;4408;-70
2022/05/23 13:42:18;;;;;;;;;;;;;;;22.98;43.02;100158.00;5007484;28;4242;-66
2022/05/23 13:44:47;;;;;;;;;;;;;;;22.96;43.15;100170.22;5002582;28;5185;-69
2022/05/23 13:47:18;;;;;;;;;;;;;;;22.93;43.00;100162.94;5008016;28;5345;-70
2022/05/23 13:49:49;;;;;;;;;;;;;;;22.93;43.16;100167.94;5017964;28;4177;-70
2022/05/23 13:52:17;;;;;;;;;;;;;;;22.92;42.52;100167.22;5015234;28;5449;-70
2022/05/23 13:54:47;;;;;;;;;;;;;;;22.91;43.19;100160.00;5002494;28;4211;-69
2022/05/23 13:57:18;;;;;;;;;;;;;;;22.99;43.51;100154.44;5011368;28;4285;-74
2022/05/23 13:59:59;;;;;;;;;;;;;;;23.10;43.37;100160.47;5009898;28;4207;-70
2022/05/23 14:02:26;;;;;;;;;;;;;;;23.15;43.00;100159.13;5009122;28;4240;-72
2022/05/23 14:04:52;;;;;;;;;;;;;;;23.18;42.72;100146.19;5003208;28;5309;-66
2022/05/23 14:07:20;;;;;;;;;;;;;;;23.16;43.00;100137.50;5011818;28;4263;-66
2022/05/23 14:09:47;;;;;;;;;;;;;;;23.17;43.07;100127.41;5016706;28;4287;-66
2022/05/23 14:12:16;;;;;;;;;;;;;;;23.18;43.23;100128.88;5015221;28;4308;-66
2022/05/23 14:14:44;;;;;;;;;;;;;;;23.16;43.38;100135.34;5015834;28;4188;-66